createdAt,value
2022-11-05T00:02:22.347Z,7.73
2022-11-05T00:05:07.787Z,7.67
2022-11-05T00:07:56.164Z,7.63
2022-11-05T00:10:26.807Z,7.55
2022-11-05T00:13:15.168Z,7.53
2022-11-05T00:16:00.491Z,7.40
2022-11-05T00:18:28.249Z,7.18
2022-11-05T00:20:56.172Z,7.13
2022-11-05T00:23:41.466Z,7.11
2022-11-05T00:26:11.404Z,7.10
2022-11-05T00:28:43.635Z,7.05
2022-11-05T00:31:13.322Z,7.01
2022-11-05T00:33:42.414Z,6.98
2022-11-05T00:36:11.905Z,6.89
2022-11-05T00:38:39.656Z,6.88
2022-11-05T00:41:07.874Z,6.83
2022-11-05T00:43:53.080Z,6.82
2022-11-05T00:46:23.325Z,6.83
2022-11-05T00:49:08.316Z,6.77
2022-11-05T00:51:36.104Z,6.73
2022-11-05T00:54:03.899Z,6.72
2022-11-05T00:56:31.699Z,6.70
2022-11-05T00:58:59.444Z,6.69
2022-11-05T01:01:28.652Z,6.69
2022-11-05T01:03:56.419Z,6.71
2022-11-05T01:06:24.154Z,6.69
2022-11-05T01:08:51.886Z,6.66
2022-11-05T01:11:33.987Z,6.64
2022-11-05T01:14:02.609Z,6.55
2022-11-05T01:16:32.201Z,6.52
2022-11-05T01:19:00.621Z,6.51
2022-11-05T01:21:28.434Z,6.49
2022-11-05T01:23:56.214Z,6.47
2022-11-05T01:26:24.080Z,6.43
2022-11-05T01:28:53.854Z,6.39
2022-11-05T01:31:22.114Z,6.38
2022-11-05T01:33:51.743Z,6.35
2022-11-05T01:36:20.003Z,6.34
2022-11-05T01:38:47.760Z,6.31
2022-11-05T01:41:15.540Z,6.30
2022-11-05T01:43:49.154Z,6.27
2022-11-05T01:46:20.815Z,6.27
2022-11-05T01:48:55.198Z,6.25
2022-11-05T01:51:28.359Z,6.21
2022-11-05T01:54:01.540Z,6.21
2022-11-05T01:56:35.948Z,6.19
2022-11-05T01:59:07.706Z,6.06
2022-11-05T02:01:35.682Z,6.05
2022-11-05T02:04:09.732Z,6.05
2022-11-05T02:06:45.886Z,6.07
2022-11-05T02:09:19.780Z,6.03
2022-11-05T02:11:47.940Z,6.04
2022-11-05T02:14:15.768Z,6.00
2022-11-05T02:16:50.436Z,6.00
2022-11-05T02:19:45.584Z,5.96
2022-11-05T02:22:43.991Z,5.91
2022-11-05T02:25:33.547Z,5.89
2022-11-05T02:28:20.849Z,5.88
2022-11-05T02:30:54.668Z,5.88
2022-11-05T02:33:40.774Z,5.85
2022-11-05T02:36:29.611Z,5.85
2022-11-05T02:39:10.802Z,5.80
2022-11-05T02:41:47.649Z,5.80
2022-11-05T02:44:24.975Z,5.78
2022-11-05T02:46:59.448Z,5.76
2022-11-05T02:49:40.991Z,5.75
2022-11-05T02:52:17.328Z,5.75
2022-11-05T02:54:54.095Z,5.76
2022-11-05T02:57:23.258Z,5.73
2022-11-05T03:00:00.792Z,5.74
2022-11-05T03:02:30.181Z,5.72
2022-11-05T03:04:58.787Z,5.70
2022-11-05T03:07:36.467Z,5.70
2022-11-05T03:10:14.596Z,5.72
2022-11-05T03:12:53.044Z,5.68
2022-11-05T03:15:35.311Z,5.68
2022-11-05T03:18:11.980Z,5.68
2022-11-05T03:20:45.392Z,5.66
2022-11-05T03:23:21.119Z,5.63
2022-11-05T03:25:51.023Z,5.61
2022-11-05T03:28:23.450Z,5.56
2022-11-05T03:30:53.505Z,5.57
2022-11-05T03:33:28.563Z,5.55
2022-11-05T03:35:59.994Z,5.55
2022-11-05T03:38:30.522Z,5.53
2022-11-05T03:41:03.472Z,5.53
2022-11-05T03:43:36.318Z,5.48
2022-11-05T03:46:08.796Z,5.48
2022-11-05T03:48:42.336Z,5.46
2022-11-05T03:51:17.504Z,5.46
2022-11-05T03:53:49.262Z,5.43
2022-11-05T03:56:24.047Z,5.41
2022-11-05T03:58:58.520Z,5.39
2022-11-05T04:01:27.000Z,5.39
2022-11-05T04:03:56.315Z,5.40
2022-11-05T04:06:41.734Z,5.38
2022-11-05T04:09:28.802Z,5.31
2022-11-05T04:12:13.881Z,5.28
2022-11-05T04:14:41.617Z,5.22
2022-11-05T04:17:09.830Z,5.21
2022-11-05T04:19:58.454Z,5.21
2022-11-05T04:22:45.466Z,5.23
2022-11-05T04:25:13.840Z,5.26
2022-11-05T04:27:41.789Z,5.29
2022-11-05T04:30:18.426Z,5.35
2022-11-05T04:33:03.875Z,5.38
2022-11-05T04:35:36.050Z,5.43
2022-11-05T04:38:05.062Z,5.49
2022-11-05T04:40:33.107Z,5.52
2022-11-05T04:43:01.615Z,5.58
2022-11-05T04:45:30.921Z,5.63
2022-11-05T04:47:58.837Z,5.64
2022-11-05T04:50:26.815Z,5.63
2022-11-05T04:52:56.072Z,5.68
2022-11-05T04:55:23.976Z,5.70
2022-11-05T04:57:53.155Z,5.72
2022-11-05T05:00:22.837Z,5.72
2022-11-05T05:02:50.661Z,5.76
2022-11-05T05:05:18.786Z,5.79
2022-11-05T05:07:46.520Z,5.82
2022-11-05T05:10:15.647Z,5.88
2022-11-05T05:12:43.390Z,5.93
2022-11-05T05:15:11.110Z,5.98
2022-11-05T05:17:38.878Z,5.97
2022-11-05T05:20:24.956Z,6.01
2022-11-05T05:22:53.958Z,6.01
2022-11-05T05:25:23.879Z,5.99
2022-11-05T05:27:51.710Z,6.03
2022-11-05T05:30:19.741Z,6.01
2022-11-05T05:32:47.477Z,5.97
2022-11-05T05:35:15.353Z,5.93
2022-11-05T05:37:44.186Z,5.86
2022-11-05T05:40:12.559Z,5.85
2022-11-05T05:42:43.322Z,5.79
2022-11-05T05:45:12.545Z,5.72
2022-11-05T05:47:40.393Z,5.72
2022-11-05T05:50:08.493Z,5.74
2022-11-05T05:52:36.198Z,5.75
2022-11-05T05:55:03.985Z,5.79
2022-11-05T05:57:31.681Z,5.76
2022-11-05T06:00:01.887Z,5.78
2022-11-05T06:02:39.466Z,5.81
2022-11-05T06:05:07.626Z,5.81
2022-11-05T06:07:37.459Z,5.78
2022-11-05T06:10:06.258Z,5.77
2022-11-05T06:12:34.546Z,5.76
2022-11-05T06:15:04.090Z,5.72
2022-11-05T06:17:31.915Z,5.69
2022-11-05T06:19:59.608Z,5.70
2022-11-05T06:22:27.341Z,5.69
2022-11-05T06:24:55.092Z,5.68
2022-11-05T06:27:22.871Z,5.65
2022-11-05T06:29:50.604Z,5.63
2022-11-05T06:32:19.689Z,5.61
2022-11-05T06:34:47.455Z,5.61
2022-11-05T06:37:15.221Z,5.60
2022-11-05T06:39:42.972Z,5.62
2022-11-05T06:42:18.967Z,5.66
2022-11-05T06:44:48.307Z,5.68
2022-11-05T06:47:16.068Z,5.73
2022-11-05T06:49:45.133Z,5.80
2022-11-05T06:52:13.000Z,5.88
2022-11-05T06:54:42.203Z,5.97
2022-11-05T06:57:10.922Z,6.04
2022-11-05T06:59:39.375Z,6.06
2022-11-05T07:02:07.864Z,6.10
2022-11-05T07:04:35.685Z,6.16
2022-11-05T07:07:04.837Z,6.20
2022-11-05T07:09:32.508Z,6.24
2022-11-05T07:12:00.278Z,6.28
2022-11-05T07:14:27.990Z,6.32
2022-11-05T07:16:57.459Z,6.37
2022-11-05T07:19:25.193Z,6.41
2022-11-05T07:21:52.911Z,6.44
2022-11-05T07:24:21.986Z,6.48
2022-11-05T07:26:49.693Z,6.50
2022-11-05T07:29:17.427Z,6.42
2022-11-05T07:31:46.447Z,6.41
2022-11-05T07:34:14.227Z,6.43
2022-11-05T07:36:41.937Z,6.46
2022-11-05T07:39:09.896Z,6.49
2022-11-05T07:41:38.979Z,6.56
2022-11-05T07:44:06.884Z,6.61
2022-11-05T07:46:34.820Z,6.63
2022-11-05T07:49:02.590Z,6.66
2022-11-05T07:51:30.312Z,6.65
2022-11-05T07:53:58.016Z,6.70
2022-11-05T07:56:25.771Z,6.78
2022-11-05T07:58:54.875Z,6.87
2022-11-05T08:01:22.969Z,6.95
2022-11-05T08:03:50.765Z,7.06
2022-11-05T08:06:18.482Z,7.19
2022-11-05T08:08:46.271Z,7.47
2022-11-05T08:11:14.024Z,8.08
2022-11-05T08:13:42.756Z,9.19
2022-11-05T08:16:11.848Z,10.29
2022-11-05T08:18:39.578Z,11.05
2022-11-05T08:21:08.906Z,11.53
2022-11-05T08:23:36.774Z,11.80
2022-11-05T08:26:05.033Z,11.90
2022-11-05T08:28:32.847Z,12.04
2022-11-05T08:31:00.623Z,11.97
2022-11-05T08:33:31.306Z,11.90
2022-11-05T08:36:03.221Z,11.69
2022-11-05T08:38:31.037Z,11.84
2022-11-05T08:40:59.279Z,11.95
2022-11-05T08:43:27.355Z,12.00
2022-11-05T08:45:55.255Z,12.24
2022-11-05T08:48:23.278Z,12.26
2022-11-05T08:50:52.364Z,12.23
2022-11-05T08:53:20.218Z,12.09
2022-11-05T08:55:50.049Z,12.19
2022-11-05T08:58:18.229Z,12.63
2022-11-05T09:00:47.959Z,12.80
2022-11-05T09:03:16.064Z,12.92
2022-11-05T09:05:44.158Z,12.91
2022-11-05T09:08:15.314Z,12.82
2022-11-05T09:10:43.684Z,12.64
2022-11-05T09:13:17.817Z,12.73
2022-11-05T09:15:46.485Z,12.81
2022-11-05T09:18:15.470Z,12.87
2022-11-05T09:20:43.306Z,12.99
2022-11-05T09:23:15.067Z,13.02
2022-11-05T09:25:43.048Z,13.16
2022-11-05T09:28:16.481Z,13.21
2022-11-05T09:30:46.248Z,13.29
2022-11-05T09:33:14.544Z,13.52
2022-11-05T09:35:42.948Z,13.85
2022-11-05T09:38:10.748Z,14.00
2022-11-05T09:40:45.055Z,13.99
2022-11-05T09:43:19.888Z,14.11
2022-11-05T09:45:51.382Z,13.87
2022-11-05T09:48:21.484Z,13.85
2022-11-05T09:50:50.055Z,13.78
2022-11-05T09:53:20.187Z,13.70
2022-11-05T09:55:52.397Z,13.50
2022-11-05T09:58:28.716Z,13.32
2022-11-05T10:00:58.168Z,13.28
2022-11-05T10:03:29.950Z,13.20
2022-11-05T10:06:08.818Z,13.01
2022-11-05T10:08:41.590Z,12.95
2022-11-05T10:11:17.286Z,13.13
2022-11-05T10:13:48.265Z,13.51
2022-11-05T10:16:24.737Z,13.76
2022-11-05T10:18:56.216Z,13.86
2022-11-05T10:21:44.284Z,13.77
2022-11-05T10:24:15.602Z,13.97
2022-11-05T10:26:48.458Z,14.07
2022-11-05T10:29:23.652Z,13.89
2022-11-05T10:31:53.999Z,13.78
2022-11-05T10:34:23.897Z,13.64
2022-11-05T10:36:51.668Z,13.45
2022-11-05T10:39:20.919Z,13.35
2022-11-05T10:42:02.121Z,13.13
2022-11-05T10:44:36.047Z,13.08
2022-11-05T10:47:16.373Z,12.93
2022-11-05T10:49:54.922Z,12.82
2022-11-05T10:52:25.747Z,12.81
2022-11-05T10:54:58.147Z,12.77
2022-11-05T10:57:33.454Z,12.63
2022-11-05T11:00:28.306Z,12.63
2022-11-05T11:02:57.907Z,12.64
2022-11-05T11:05:29.568Z,12.64
2022-11-05T11:08:02.316Z,12.53
2022-11-05T11:10:33.255Z,12.48
2022-11-05T11:13:03.067Z,12.31
2022-11-05T11:15:32.664Z,12.23
2022-11-05T11:18:26.022Z,12.10
2022-11-05T11:20:53.851Z,11.99
2022-11-05T11:23:21.647Z,11.80
2022-11-05T11:25:53.763Z,11.87
2022-11-05T11:28:25.548Z,11.92
2022-11-05T11:31:05.186Z,11.95
2022-11-05T11:33:34.679Z,11.89
2022-11-05T11:36:02.434Z,11.86
2022-11-05T11:38:31.722Z,11.91
2022-11-05T11:41:25.537Z,11.86
2022-11-05T11:43:58.167Z,11.88
2022-11-05T11:46:26.741Z,11.88
2022-11-05T11:48:54.456Z,11.83
2022-11-05T11:51:31.775Z,11.86
2022-11-05T11:54:00.853Z,11.91
2022-11-05T11:56:30.300Z,11.87
2022-11-05T11:59:03.958Z,11.81
2022-11-05T12:02:13.711Z,11.78
2022-11-05T12:05:03.264Z,11.74
2022-11-05T12:07:45.953Z,11.74
2022-11-05T12:10:29.437Z,11.70
2022-11-05T12:13:22.528Z,11.66
2022-11-05T12:15:54.597Z,11.70
2022-11-05T12:18:35.021Z,11.86
2022-11-05T12:21:34.644Z,11.92
2022-11-05T12:24:24.480Z,12.00
2022-11-05T12:27:05.746Z,12.02
2022-11-05T12:29:45.379Z,12.19
2022-11-05T12:32:49.631Z,12.33
2022-11-05T12:35:34.982Z,12.84
2022-11-05T12:38:13.632Z,13.19
2022-11-05T12:40:59.063Z,13.50
2022-11-05T12:43:37.139Z,13.64
2022-11-05T12:46:15.250Z,13.58
2022-11-05T12:49:24.150Z,13.32
2022-11-05T12:52:07.940Z,13.07
2022-11-05T12:54:50.952Z,12.94
2022-11-05T12:57:19.166Z,12.89
2022-11-05T12:59:52.664Z,12.79
2022-11-05T13:02:27.202Z,12.69
2022-11-05T13:05:00.686Z,12.67
2022-11-05T13:07:30.949Z,12.46
2022-11-05T13:10:03.661Z,12.55
2022-11-05T13:12:34.627Z,12.44
2022-11-05T13:15:07.295Z,12.48
2022-11-05T13:17:46.517Z,12.45
2022-11-05T13:20:21.289Z,12.41
2022-11-05T13:22:52.562Z,12.50
2022-11-05T13:25:24.032Z,12.51
2022-11-05T13:27:57.529Z,12.39
2022-11-05T13:30:29.219Z,12.31
2022-11-05T13:33:03.037Z,12.34
2022-11-05T13:35:36.951Z,12.25
2022-11-05T13:38:27.445Z,12.16
2022-11-05T13:41:13.312Z,12.16
2022-11-05T13:44:02.229Z,12.25
2022-11-05T13:46:36.364Z,12.47
2022-11-05T13:49:39.899Z,12.65
2022-11-05T13:52:30.656Z,12.63
2022-11-05T13:55:19.039Z,12.58
2022-11-05T13:58:10.691Z,12.52
2022-11-05T14:00:44.633Z,12.42
2022-11-05T14:03:19.611Z,12.31
2022-11-05T14:05:55.045Z,12.18
2022-11-05T14:08:28.054Z,11.99
2022-11-05T14:11:02.694Z,11.99
2022-11-05T14:13:35.694Z,12.02
2022-11-05T14:16:06.866Z,12.00
2022-11-05T14:18:43.548Z,11.99
2022-11-05T14:21:49.159Z,12.01
2022-11-05T14:24:27.055Z,11.96
2022-11-05T14:27:39.545Z,11.88
2022-11-05T14:30:55.200Z,11.86
2022-11-05T14:33:34.415Z,11.85
2022-11-05T14:36:29.489Z,11.80
2022-11-05T14:39:04.604Z,11.71
2022-11-05T14:41:56.507Z,11.57
2022-11-05T14:44:25.367Z,11.54
2022-11-05T14:46:55.921Z,11.49
2022-11-05T14:49:27.867Z,11.45
2022-11-05T14:51:57.867Z,11.35
2022-11-05T14:54:30.477Z,11.26
2022-11-05T14:57:02.467Z,11.23
2022-11-05T14:59:53.988Z,11.16
2022-11-05T15:02:26.319Z,11.10
2022-11-05T15:05:38.292Z,11.10
2022-11-05T15:08:37.167Z,11.13
2022-11-05T15:11:17.231Z,11.14
2022-11-05T15:13:59.473Z,11.13
2022-11-05T15:16:32.292Z,11.13
2022-11-05T15:19:01.246Z,11.13
2022-11-05T15:21:32.707Z,11.14
2022-11-05T15:24:02.889Z,11.12
2022-11-05T15:26:39.363Z,11.10
2022-11-05T15:29:18.769Z,11.05
2022-11-05T15:31:47.788Z,11.01
2022-11-05T15:34:22.856Z,10.95
2022-11-05T15:36:53.405Z,10.93
2022-11-05T15:39:43.225Z,10.85
2022-11-05T15:42:14.644Z,10.86
2022-11-05T15:44:45.794Z,10.85
2022-11-05T15:47:16.857Z,10.84
2022-11-05T15:49:45.619Z,10.83
2022-11-05T15:52:18.208Z,10.84
2022-11-05T15:54:46.098Z,10.83
2022-11-05T15:57:31.938Z,10.78
2022-11-05T16:00:05.523Z,10.77
2022-11-05T16:02:35.998Z,10.77
2022-11-05T16:05:10.474Z,10.74
2022-11-05T16:07:43.030Z,10.69
2022-11-05T16:10:19.699Z,10.69
2022-11-05T16:12:47.606Z,10.69
2022-11-05T16:15:23.484Z,10.61
2022-11-05T16:17:54.803Z,10.57
2022-11-05T16:20:29.388Z,10.57
2022-11-05T16:22:59.751Z,10.57
2022-11-05T16:25:47.206Z,10.52
2022-11-05T16:28:23.107Z,10.53
2022-11-05T16:30:57.396Z,10.52
2022-11-05T16:33:27.337Z,10.54
2022-11-05T16:35:55.100Z,10.53
2022-11-05T16:38:22.995Z,10.49
2022-11-05T16:40:50.963Z,10.40
2022-11-05T16:43:20.979Z,10.42
2022-11-05T16:45:48.766Z,10.42
2022-11-05T16:48:17.904Z,10.41
2022-11-05T16:50:46.427Z,10.37
2022-11-05T16:53:14.444Z,10.37
2022-11-05T16:55:44.815Z,10.35
2022-11-05T16:58:20.298Z,10.38
2022-11-05T17:00:49.107Z,10.40
2022-11-05T17:03:18.369Z,10.36
2022-11-05T17:05:46.504Z,10.37
2022-11-05T17:08:14.655Z,10.35
2022-11-05T17:10:42.716Z,10.35
2022-11-05T17:13:13.993Z,10.34
2022-11-05T17:15:44.051Z,10.30
2022-11-05T17:18:17.951Z,10.29
2022-11-05T17:20:49.593Z,10.29
2022-11-05T17:23:19.302Z,10.31
2022-11-05T17:25:50.524Z,10.30
2022-11-05T17:28:19.157Z,10.30
2022-11-05T17:30:52.331Z,10.27
2022-11-05T17:33:21.441Z,10.28
2022-11-05T17:35:51.048Z,10.26
2022-11-05T17:38:19.229Z,10.26
2022-11-05T17:40:47.222Z,10.27
2022-11-05T17:43:15.812Z,10.26
2022-11-05T17:45:45.203Z,10.26
2022-11-05T17:48:13.474Z,10.25
2022-11-05T17:50:42.446Z,10.24
2022-11-05T17:53:12.974Z,10.24
2022-11-05T17:55:41.633Z,10.25
2022-11-05T17:58:09.632Z,10.26
2022-11-05T18:00:37.592Z,10.23
2022-11-05T18:03:05.728Z,10.25
2022-11-05T18:05:35.291Z,10.25
2022-11-05T18:08:03.341Z,10.25
2022-11-05T18:10:32.784Z,10.21
2022-11-05T18:13:00.534Z,10.17
2022-11-05T18:15:28.271Z,10.16
2022-11-05T18:17:56.015Z,10.16
2022-11-05T18:20:24.006Z,10.18
2022-11-05T18:22:52.446Z,10.15
2022-11-05T18:25:20.293Z,10.13
2022-11-05T18:27:49.416Z,10.09
2022-11-05T18:30:17.184Z,10.07
2022-11-05T18:32:45.903Z,10.06
2022-11-05T18:35:14.455Z,10.05
2022-11-05T18:37:42.739Z,10.04
2022-11-05T18:40:11.725Z,10.02
2022-11-05T18:42:39.782Z,10.02
2022-11-05T18:45:10.636Z,10.00
2022-11-05T18:47:38.450Z,9.98
2022-11-05T18:50:10.435Z,9.99
2022-11-05T18:52:38.317Z,9.97
2022-11-05T18:55:07.118Z,9.97
2022-11-05T18:57:35.298Z,9.98
2022-11-05T19:00:03.668Z,10.00
2022-11-05T19:02:33.276Z,10.02
2022-11-05T19:05:27.278Z,10.02
2022-11-05T19:07:48.829Z,10.04
2022-11-05T19:10:16.612Z,10.04
2022-11-05T19:12:44.340Z,10.05
2022-11-05T19:15:12.735Z,10.04
2022-11-05T19:17:41.869Z,10.05
2022-11-05T19:20:10.287Z,10.06
2022-11-05T19:22:38.126Z,10.06
2022-11-05T19:25:07.001Z,10.08
2022-11-05T19:27:36.050Z,10.06
2022-11-05T19:30:04.375Z,10.03
2022-11-05T19:32:32.348Z,10.01
2022-11-05T19:35:01.451Z,10.00
2022-11-05T19:37:29.216Z,9.96
2022-11-05T19:39:56.939Z,9.91
2022-11-05T19:42:24.696Z,9.89
2022-11-05T19:44:52.417Z,9.89
2022-11-05T19:47:20.165Z,9.88
2022-11-05T19:49:47.903Z,9.89
2022-11-05T19:52:17.019Z,9.89
2022-11-05T19:54:46.000Z,9.90
2022-11-05T19:57:13.883Z,9.92
2022-11-05T19:59:41.684Z,9.90
2022-11-05T20:02:15.841Z,9.89
2022-11-05T20:04:44.130Z,9.93
2022-11-05T20:07:11.904Z,9.94
2022-11-05T20:09:41.221Z,9.94
2022-11-05T20:12:09.092Z,9.93
2022-11-05T20:14:36.979Z,9.91
2022-11-05T20:17:04.776Z,9.91
2022-11-05T20:19:33.515Z,9.88
2022-11-05T20:22:01.653Z,9.86
2022-11-05T20:24:29.741Z,9.83
2022-11-05T20:26:58.839Z,9.80
2022-11-05T20:29:33.800Z,9.78
2022-11-05T20:32:03.710Z,9.77
2022-11-05T20:34:32.845Z,9.76
2022-11-05T20:37:00.682Z,9.78
2022-11-05T20:39:29.369Z,9.78
2022-11-05T20:42:00.429Z,9.76
2022-11-05T20:44:28.208Z,9.74
2022-11-05T20:46:56.664Z,9.73
2022-11-05T20:49:25.855Z,9.72
2022-11-05T20:51:53.991Z,9.67
2022-11-05T20:54:21.852Z,9.70
2022-11-05T20:56:49.677Z,9.71
2022-11-05T20:59:19.415Z,9.69
2022-11-05T21:01:47.376Z,9.70
2022-11-05T21:04:17.890Z,9.68
2022-11-05T21:06:47.748Z,9.63
2022-11-05T21:09:15.545Z,9.61
2022-11-05T21:12:00.920Z,9.58
2022-11-05T21:14:30.048Z,9.53
2022-11-05T21:16:57.787Z,9.50
2022-11-05T21:19:25.540Z,9.44
2022-11-05T21:21:53.260Z,9.38
2022-11-05T21:24:21.030Z,9.39
2022-11-05T21:26:49.917Z,9.38
2022-11-05T21:29:18.136Z,9.38
2022-11-05T21:31:47.581Z,9.38
2022-11-05T21:34:15.815Z,9.36
2022-11-05T21:36:43.747Z,9.34
2022-11-05T21:39:13.748Z,9.34
2022-11-05T21:41:42.608Z,9.36
2022-11-05T21:44:10.670Z,9.36
2022-11-05T21:46:38.760Z,9.37
2022-11-05T21:49:07.881Z,9.34
2022-11-05T21:51:53.041Z,9.36
2022-11-05T21:54:38.382Z,9.35
2022-11-05T21:57:23.973Z,9.37
2022-11-05T21:59:55.064Z,9.43
2022-11-05T22:02:24.189Z,9.45
2022-11-05T22:04:54.792Z,9.47
2022-11-05T22:07:24.821Z,9.47
2022-11-05T22:09:52.816Z,9.48
2022-11-05T22:12:20.736Z,9.47
2022-11-05T22:14:48.523Z,9.51
2022-11-05T22:17:16.459Z,9.53
2022-11-05T22:19:44.286Z,9.56
2022-11-05T22:22:14.083Z,9.57
2022-11-05T22:24:42.978Z,9.56
2022-11-05T22:27:14.730Z,9.55
2022-11-05T22:29:42.991Z,9.54
2022-11-05T22:32:10.991Z,9.49
2022-11-05T22:34:38.831Z,9.46
2022-11-05T22:37:06.935Z,9.43
2022-11-05T22:39:36.029Z,9.43
2022-11-05T22:42:08.253Z,9.45
2022-11-05T22:44:37.096Z,9.46
2022-11-05T22:47:05.422Z,9.49
2022-11-05T22:49:33.920Z,9.49
2022-11-05T22:52:01.717Z,9.50
2022-11-05T22:54:29.474Z,9.51
2022-11-05T22:56:58.592Z,9.54
2022-11-05T22:59:26.503Z,9.51
2022-11-05T23:01:54.375Z,9.54
2022-11-05T23:04:22.234Z,9.55
2022-11-05T23:07:07.321Z,9.54
2022-11-05T23:09:53.643Z,9.56
2022-11-05T23:12:27.094Z,9.57
2022-11-05T23:14:56.466Z,9.55
2022-11-05T23:17:42.629Z,9.52
2022-11-05T23:20:31.495Z,9.51
2022-11-05T23:23:17.212Z,9.53
2022-11-05T23:25:45.127Z,9.52
2022-11-05T23:28:15.072Z,9.48
2022-11-05T23:30:58.847Z,9.47
2022-11-05T23:33:26.578Z,9.44
2022-11-05T23:36:11.785Z,9.41
2022-11-05T23:38:40.190Z,9.39
2022-11-05T23:41:25.969Z,9.36
2022-11-05T23:44:12.713Z,9.36
2022-11-05T23:46:58.001Z,9.36
2022-11-05T23:49:25.791Z,9.29
2022-11-05T23:51:53.547Z,9.26
2022-11-05T23:54:21.903Z,9.26
2022-11-05T23:56:49.627Z,9.25
2022-11-05T23:59:18.754Z,9.22
